createdAt,value
2022-11-01T00:02:22.183Z,100680.94
2022-11-01T00:07:46.612Z,100687.34
2022-11-01T00:13:09.595Z,100680.13
2022-11-01T00:18:32.724Z,100682.66
2022-11-01T00:23:57.146Z,100683.63
2022-11-01T00:29:20.178Z,100682.50
2022-11-01T00:34:43.188Z,100654.22
2022-11-01T00:40:08.613Z,100652.25
2022-11-01T00:45:31.624Z,100642.75
2022-11-01T00:50:54.704Z,100642.69
2022-11-01T00:56:19.181Z,100625.97
2022-11-01T01:01:42.345Z,100622.44
2022-11-01T01:07:05.687Z,100620.78
2022-11-01T01:12:30.047Z,100605.09
2022-11-01T01:17:53.855Z,100602.19
2022-11-01T01:23:16.885Z,100605.47
2022-11-01T01:28:44.521Z,100610.31
2022-11-01T01:34:07.959Z,100595.91
2022-11-01T01:39:31.064Z,100595.69
2022-11-01T01:45:25.072Z,100584.88
2022-11-01T01:50:50.602Z,100587.16
2022-11-01T01:56:14.951Z,100593.78
2022-11-01T02:01:41.425Z,100578.44
2022-11-01T02:07:04.571Z,100582.50
2022-11-01T02:12:32.560Z,100565.84
2022-11-01T02:18:07.741Z,100568.81
2022-11-01T02:24:08.149Z,100571.00
2022-11-01T02:29:52.756Z,100558.22
2022-11-01T02:35:23.263Z,100539.44
2022-11-01T02:40:51.242Z,100552.75
2022-11-01T02:46:32.666Z,100553.69
2022-11-01T02:51:57.382Z,100561.44
2022-11-01T02:57:29.588Z,100565.78
2022-11-01T03:02:55.998Z,100574.41
2022-11-01T03:08:23.777Z,100546.50
2022-11-01T03:13:54.522Z,100594.50
2022-11-01T03:19:29.985Z,100610.78
2022-11-01T03:24:58.757Z,100610.34
2022-11-01T03:36:13.610Z,100607.09
2022-11-01T03:41:43.960Z,100613.72
2022-11-01T03:47:07.013Z,100611.00
2022-11-01T03:52:30.001Z,100634.38
2022-11-01T03:57:55.429Z,100646.50
2022-11-01T04:03:18.474Z,100657.38
2022-11-01T04:08:41.502Z,100675.41
2022-11-01T04:14:19.787Z,100663.56
2022-11-01T04:20:00.608Z,100663.13
2022-11-01T04:25:23.641Z,100667.06
2022-11-01T04:30:47.998Z,100678.69
2022-11-01T04:36:11.306Z,100703.69
2022-11-01T04:41:34.338Z,100707.06
2022-11-01T04:46:58.684Z,100708.84
2022-11-01T04:52:21.745Z,100722.13
2022-11-01T04:57:45.375Z,100719.72
2022-11-01T05:03:12.204Z,100725.38
2022-11-01T05:08:35.366Z,100728.34
2022-11-01T05:13:58.415Z,100712.00
2022-11-01T05:19:22.817Z,100710.88
2022-11-01T05:24:45.804Z,100711.19
2022-11-01T05:30:10.246Z,100726.56
2022-11-01T05:35:36.030Z,100707.91
2022-11-01T05:40:59.060Z,100713.22
2022-11-01T05:46:22.124Z,100716.41
2022-11-01T05:51:46.463Z,100710.94
2022-11-01T05:57:09.502Z,100713.56
2022-11-01T06:02:33.224Z,100718.75
2022-11-01T06:07:57.846Z,100729.22
2022-11-01T06:13:21.151Z,100727.13
2022-11-01T06:18:44.182Z,100739.72
2022-11-01T06:24:09.169Z,100733.19
2022-11-01T06:29:32.261Z,100739.91
2022-11-01T06:34:58.992Z,100738.19
2022-11-01T06:40:23.442Z,100745.81
2022-11-01T06:45:47.944Z,100778.09
2022-11-01T06:51:11.021Z,100793.53
2022-11-01T06:56:35.513Z,100778.56
2022-11-01T07:01:59.067Z,100788.50
2022-11-01T07:07:22.333Z,100802.53
2022-11-01T07:12:46.772Z,100834.75
2022-11-01T07:18:10.158Z,100830.13
2022-11-01T07:23:33.270Z,100831.34
2022-11-01T07:28:57.744Z,100849.78
2022-11-01T07:34:23.121Z,100883.03
2022-11-01T07:39:46.185Z,100894.25
2022-11-01T07:45:13.254Z,100893.22
2022-11-01T07:50:37.034Z,100904.25
2022-11-01T07:56:03.091Z,100899.75
2022-11-01T08:01:29.878Z,100924.75
2022-11-01T08:06:53.062Z,100930.06
2022-11-01T08:12:16.189Z,100935.53
2022-11-01T08:17:40.585Z,100947.78
2022-11-01T08:23:04.318Z,100966.31
2022-11-01T08:28:30.613Z,100980.31
2022-11-01T08:33:55.143Z,100981.81
2022-11-01T08:39:18.214Z,100988.81
2022-11-01T08:44:41.490Z,101003.13
2022-11-01T08:50:08.719Z,100992.47
2022-11-01T08:55:38.462Z,101016.06
2022-11-01T09:01:01.945Z,101023.78
2022-11-01T09:06:28.977Z,101025.44
2022-11-01T09:11:54.066Z,101056.50
2022-11-01T09:17:20.091Z,101079.41
2022-11-01T09:22:47.394Z,101048.97
2022-11-01T09:28:10.443Z,101073.97
2022-11-01T09:33:33.849Z,101077.16
2022-11-01T09:38:59.269Z,101075.25
2022-11-01T09:44:28.012Z,101104.06
2022-11-01T09:50:01.012Z,101123.03
2022-11-01T09:55:30.803Z,101115.41
2022-11-01T10:00:56.639Z,101133.31
2022-11-01T10:06:23.798Z,101138.03
2022-11-01T10:12:03.460Z,101159.13
2022-11-01T10:17:50.877Z,101146.09
2022-11-01T10:23:17.167Z,101149.63
2022-11-01T10:28:46.413Z,101171.09
2022-11-01T10:34:15.859Z,101147.00
2022-11-01T10:40:02.849Z,101163.69
2022-11-01T10:45:28.079Z,101180.63
2022-11-01T10:50:51.469Z,101189.91
2022-11-01T10:56:19.956Z,101180.31
2022-11-01T11:01:50.398Z,101185.47
2022-11-01T11:07:16.500Z,101202.47
2022-11-01T11:12:43.273Z,101183.19
2022-11-01T11:18:15.969Z,101185.47
2022-11-01T11:23:42.517Z,101190.81
2022-11-01T11:29:06.324Z,101181.09
2022-11-01T11:34:31.937Z,101168.91
2022-11-01T11:40:06.551Z,101173.97
2022-11-01T11:45:30.572Z,101179.84
2022-11-01T11:51:02.137Z,101178.13
2022-11-01T11:56:27.068Z,101174.81
2022-11-01T12:01:50.378Z,101194.59
2022-11-01T12:07:25.705Z,101183.84
2022-11-01T12:12:53.004Z,101172.06
2022-11-01T12:18:17.112Z,101180.69
2022-11-01T12:23:42.021Z,101167.25
2022-11-01T12:29:14.537Z,101157.91
2022-11-01T12:34:42.364Z,101156.25
2022-11-01T12:40:12.259Z,101159.34
2022-11-01T12:45:37.918Z,101157.91
2022-11-01T12:51:04.188Z,101166.91
2022-11-01T12:56:28.622Z,101160.44
2022-11-01T13:01:55.952Z,101130.59
2022-11-01T13:07:26.249Z,101159.47
2022-11-01T13:12:56.433Z,101177.03
2022-11-01T13:18:27.587Z,101138.56
2022-11-01T13:23:53.902Z,101154.97
2022-11-01T13:29:35.049Z,101147.00
2022-11-01T13:35:10.525Z,101162.97
2022-11-01T13:40:37.448Z,101144.25
2022-11-01T13:46:26.694Z,101151.97
2022-11-01T13:51:55.172Z,101162.38
2022-11-01T13:57:20.558Z,101165.50
2022-11-01T14:03:03.441Z,101173.09
2022-11-01T14:08:30.681Z,101185.06
2022-11-01T14:13:53.768Z,101187.13
2022-11-01T14:19:24.526Z,101191.47
2022-11-01T14:24:54.330Z,101180.94
2022-11-01T14:30:20.933Z,101183.97
2022-11-01T14:35:48.436Z,101182.22
2022-11-01T14:41:14.117Z,101193.88
2022-11-01T14:46:45.537Z,101192.34
2022-11-01T14:52:14.665Z,101158.09
2022-11-01T14:57:37.743Z,101170.50
2022-11-01T15:03:02.722Z,101180.75
2022-11-01T15:08:31.970Z,101181.94
2022-11-01T15:13:55.507Z,101189.75
2022-11-01T15:19:22.973Z,101184.19
2022-11-01T15:24:48.565Z,101180.06
2022-11-01T15:30:20.625Z,101179.41
2022-11-01T15:35:43.925Z,101175.19
2022-11-01T15:41:28.861Z,101163.19
2022-11-01T15:46:55.263Z,101149.81
2022-11-01T15:52:20.005Z,101154.53
2022-11-01T15:57:47.409Z,101141.84
2022-11-01T16:03:15.005Z,101157.69
2022-11-01T16:08:40.495Z,101178.19
2022-11-01T16:14:08.114Z,101176.44
2022-11-01T16:19:37.038Z,101176.72
2022-11-01T16:25:13.151Z,101201.31
2022-11-01T16:30:46.365Z,101184.13
2022-11-01T16:36:33.258Z,101169.88
2022-11-01T16:41:57.462Z,101191.66
2022-11-01T16:47:22.159Z,101183.50
2022-11-01T16:52:45.235Z,101182.72
2022-11-01T16:58:12.773Z,101192.44
2022-11-01T17:03:37.148Z,101193.09
2022-11-01T17:09:00.211Z,101191.94
2022-11-01T17:14:23.319Z,101200.69
2022-11-01T17:19:50.744Z,101187.25
2022-11-01T17:25:16.914Z,101198.50
2022-11-01T17:30:40.082Z,101193.69
2022-11-01T17:36:04.972Z,101205.59
2022-11-01T17:41:28.092Z,101204.38
2022-11-01T17:46:51.216Z,101200.41
2022-11-01T17:52:15.660Z,101192.91
2022-11-01T17:57:39.997Z,101197.47
2022-11-01T18:03:03.199Z,101191.69
2022-11-01T18:08:29.580Z,101206.28
2022-11-01T18:14:03.600Z,101203.00
2022-11-01T18:19:36.394Z,101206.63
2022-11-01T18:25:04.933Z,101208.91
2022-11-01T18:30:28.648Z,101217.44
2022-11-01T18:35:55.962Z,101214.75
2022-11-01T18:41:22.379Z,101241.56
2022-11-01T18:46:55.111Z,101233.44
2022-11-01T18:52:19.698Z,101211.22
2022-11-01T18:57:44.156Z,101223.16
2022-11-01T19:03:11.861Z,101230.47
2022-11-01T19:08:36.031Z,101246.09
2022-11-01T19:14:02.255Z,101239.06
2022-11-01T19:19:25.507Z,101220.75
2022-11-01T19:24:49.548Z,101221.13
2022-11-01T19:30:24.548Z,101216.38
2022-11-01T19:35:48.778Z,101223.34
2022-11-01T19:41:12.313Z,101227.03
2022-11-01T19:46:36.794Z,101233.16
2022-11-01T19:52:15.500Z,101230.41
2022-11-01T19:57:42.356Z,101215.06
2022-11-01T20:03:25.590Z,101222.19
2022-11-01T20:08:50.637Z,101212.81
2022-11-01T20:14:13.840Z,101228.25
2022-11-01T20:19:38.217Z,101221.72
2022-11-01T20:25:02.796Z,101227.69
2022-11-01T20:30:25.844Z,101215.31
2022-11-01T20:35:50.387Z,101200.66
2022-11-01T20:41:14.010Z,101200.56
2022-11-01T20:46:37.106Z,101199.09
2022-11-01T20:52:19.739Z,101206.47
2022-11-01T20:57:44.796Z,101180.81
2022-11-01T21:03:14.142Z,101188.97
2022-11-01T21:08:38.555Z,101193.97
2022-11-01T21:14:01.758Z,101189.47
2022-11-01T21:19:25.047Z,101180.81
2022-11-01T21:24:50.790Z,101187.13
2022-11-01T21:30:20.108Z,101188.06
2022-11-01T21:35:44.377Z,101196.06
2022-11-01T21:41:22.362Z,101187.25
2022-11-01T21:46:48.154Z,101189.31
2022-11-01T21:57:40.803Z,101171.78
2022-11-01T22:03:04.083Z,101167.31
2022-11-01T22:08:27.334Z,101177.97
2022-11-01T22:13:54.789Z,101181.34
2022-11-01T22:19:17.903Z,101168.25
2022-11-01T22:24:40.978Z,101163.00
2022-11-01T22:30:06.244Z,101172.56
2022-11-01T22:35:29.321Z,101160.34
2022-11-01T22:46:25.550Z,101164.28
2022-11-01T22:51:51.084Z,101163.81
2022-11-01T22:57:16.494Z,101157.41
2022-11-01T23:02:41.341Z,101152.19
2022-11-01T23:08:14.364Z,101163.72
2022-11-01T23:13:55.869Z,101161.22
2022-11-01T23:19:20.476Z,101184.31
2022-11-01T23:24:43.650Z,101180.09
2022-11-01T23:30:07.513Z,101170.56
2022-11-01T23:35:33.030Z,101161.22
2022-11-01T23:40:56.045Z,101183.81
2022-11-01T23:46:19.793Z,101170.25
2022-11-01T23:51:44.260Z,101161.66
2022-11-01T23:57:07.354Z,101164.19
